createdAt,value
2022-08-10T00:01:51.709Z,10.93
2022-08-10T00:04:22.049Z,10.70
2022-08-10T00:06:52.085Z,12.23
2022-08-10T00:09:21.900Z,10.70
2022-08-10T00:11:50.162Z,10.40
2022-08-10T00:14:18.574Z,10.77
2022-08-10T00:16:46.787Z,10.73
2022-08-10T00:19:17.261Z,11.60
2022-08-10T00:21:47.509Z,11.60
2022-08-10T00:24:16.260Z,11.80
2022-08-10T00:28:01.404Z,11.73
2022-08-10T00:29:34.307Z,11.37
2022-08-10T00:32:03.006Z,12.03
2022-08-10T00:34:32.822Z,11.10
2022-08-10T00:37:02.204Z,12.50
2022-08-10T00:39:33.137Z,11.37
2022-08-10T00:42:08.411Z,12.47
2022-08-10T00:44:38.898Z,11.93
2022-08-10T00:47:21.264Z,11.87
2022-08-10T00:49:56.471Z,12.30
2022-08-10T00:52:25.707Z,12.90
2022-08-10T00:54:54.320Z,12.87
2022-08-10T00:57:25.512Z,12.77
2022-08-10T00:59:59.482Z,11.57
2022-08-10T01:02:30.718Z,12.57
2022-08-10T01:05:01.879Z,13.53
2022-08-10T01:07:51.137Z,12.70
2022-08-10T01:10:30.780Z,13.57
2022-08-10T01:13:05.445Z,12.47
2022-08-10T01:15:42.516Z,12.43
2022-08-10T01:18:15.939Z,12.70
2022-08-10T01:21:03.390Z,12.40
2022-08-10T01:24:04.200Z,12.20
2022-08-10T01:26:43.698Z,12.87
2022-08-10T01:29:33.370Z,12.20
2022-08-10T01:32:07.124Z,11.83
2022-08-10T01:34:45.510Z,12.10
2022-08-10T01:37:18.225Z,12.40
2022-08-10T01:39:51.377Z,11.83
2022-08-10T01:42:22.959Z,13.33
2022-08-10T01:44:56.741Z,11.80
2022-08-10T01:47:47.255Z,11.87
2022-08-10T01:50:22.347Z,22.57
2022-08-10T01:52:54.219Z,11.57
2022-08-10T01:55:24.547Z,11.80
2022-08-10T01:57:54.984Z,11.73
2022-08-10T02:00:25.360Z,12.17
2022-08-10T02:02:54.814Z,12.07
2022-08-10T02:05:24.602Z,11.57
2022-08-10T02:07:53.676Z,12.87
2022-08-10T02:10:25.391Z,12.77
2022-08-10T02:12:56.642Z,13.83
2022-08-10T02:15:33.515Z,12.97
2022-08-10T02:18:04.097Z,13.20
2022-08-10T02:20:36.132Z,14.70
2022-08-10T02:23:08.598Z,12.30
2022-08-10T02:25:40.519Z,13.63
2022-08-10T02:28:12.380Z,13.63
2022-08-10T02:31:00.209Z,12.40
2022-08-10T02:33:30.938Z,12.60
2022-08-10T02:36:01.621Z,13.30
2022-08-10T02:38:59.091Z,12.20
2022-08-10T02:45:02.366Z,12.60
2022-08-10T02:45:22.694Z,11.80
2022-08-10T02:47:23.766Z,12.57
2022-08-10T02:50:00.803Z,12.10
2022-08-10T02:52:37.319Z,11.80
2022-08-10T02:55:18.429Z,12.73
2022-08-10T02:58:17.547Z,11.63
2022-08-10T03:00:45.414Z,13.47
2022-08-10T03:03:21.045Z,12.90
2022-08-10T03:05:52.279Z,12.47
2022-08-10T03:08:27.016Z,13.77
2022-08-10T03:10:57.889Z,13.13
2022-08-10T03:13:27.627Z,14.33
2022-08-10T03:15:57.334Z,13.87
2022-08-10T03:18:27.506Z,12.83
2022-08-10T03:20:57.812Z,13.00
2022-08-10T03:23:28.244Z,14.17
2022-08-10T03:25:59.382Z,13.03
2022-08-10T03:28:29.306Z,12.77
2022-08-10T03:30:59.442Z,13.40
2022-08-10T03:33:33.380Z,12.57
2022-08-10T03:36:43.070Z,14.47
2022-08-10T03:38:52.513Z,14.47
2022-08-10T03:41:25.070Z,13.70
2022-08-10T03:43:54.563Z,14.07
2022-08-10T03:46:24.757Z,13.73
2022-08-10T03:48:57.048Z,13.70
2022-08-10T03:51:27.959Z,12.93
2022-08-10T03:54:06.009Z,13.47
2022-08-10T03:56:40.169Z,14.20
2022-08-10T03:59:11.951Z,14.43
2022-08-10T04:02:45.178Z,14.30
2022-08-10T04:04:30.534Z,12.73
2022-08-10T04:07:00.337Z,14.10
2022-08-10T04:09:54.045Z,13.63
2022-08-10T04:12:18.824Z,13.33
2022-08-10T04:14:51.556Z,13.90
2022-08-10T04:18:03.692Z,13.93
2022-08-10T04:20:19.549Z,12.93
2022-08-10T04:22:52.012Z,13.73
2022-08-10T04:25:22.119Z,14.63
2022-08-10T04:27:51.536Z,14.40
2022-08-10T04:30:20.040Z,14.43
2022-08-10T04:32:51.271Z,14.50
2022-08-10T04:35:23.767Z,15.83
2022-08-10T04:37:53.383Z,14.70
2022-08-10T04:40:28.401Z,14.73
2022-08-10T04:43:10.511Z,14.70
2022-08-10T04:45:50.240Z,14.47
2022-08-10T04:48:40.982Z,16.63
2022-08-10T04:51:16.829Z,14.40
2022-08-10T04:54:05.722Z,14.33
2022-08-10T04:56:37.461Z,16.40
2022-08-10T04:59:06.339Z,15.77
2022-08-10T05:02:12.525Z,14.07
2022-08-10T05:04:36.943Z,14.90
2022-08-10T05:07:11.309Z,14.70
2022-08-10T05:10:02.276Z,15.63
2022-08-10T05:12:35.739Z,16.43
2022-08-10T05:15:07.775Z,21.80
2022-08-10T05:17:36.266Z,17.20
2022-08-10T05:20:06.926Z,16.33
2022-08-10T05:22:42.293Z,17.43
2022-08-10T05:25:13.703Z,18.30
2022-08-10T05:27:43.247Z,16.90
2022-08-10T05:30:13.761Z,17.57
2022-08-10T05:32:57.960Z,18.40
2022-08-10T05:35:55.380Z,17.00
2022-08-10T05:38:21.619Z,17.27
2022-08-10T05:40:50.976Z,17.50
2022-08-10T05:43:21.209Z,18.67
2022-08-10T05:46:17.627Z,17.77
2022-08-10T05:48:57.471Z,18.63
2022-08-10T05:51:29.052Z,18.87
2022-08-10T05:54:04.505Z,18.63
2022-08-10T05:56:56.260Z,18.17
2022-08-10T06:00:35.088Z,17.20
2022-08-10T06:02:41.136Z,17.53
2022-08-10T06:05:11.514Z,17.80
2022-08-10T06:07:43.744Z,17.43
2022-08-10T06:10:31.479Z,18.33
2022-08-10T06:13:26.708Z,18.67
2022-08-10T06:16:01.808Z,17.77
2022-08-10T06:18:31.356Z,17.30
2022-08-10T06:21:00.704Z,17.70
2022-08-10T06:23:30.402Z,18.53
2022-08-10T06:26:09.815Z,18.87
2022-08-10T06:29:00.247Z,19.33
2022-08-10T06:31:46.971Z,19.20
2022-08-10T06:34:22.395Z,19.90
2022-08-10T06:36:52.928Z,20.17
2022-08-10T06:39:38.279Z,19.90
2022-08-10T06:42:18.092Z,19.83
2022-08-10T06:45:10.277Z,21.57
2022-08-10T06:47:42.698Z,22.70
2022-08-10T06:50:34.436Z,20.07
2022-08-10T06:53:12.387Z,20.37
2022-08-10T06:55:55.478Z,21.67
2022-08-10T06:58:33.467Z,19.47
2022-08-10T07:01:04.911Z,21.37
2022-08-10T07:03:37.847Z,18.83
2022-08-10T07:06:09.130Z,17.70
2022-08-10T07:08:39.323Z,19.23
2022-08-10T07:11:11.986Z,18.13
2022-08-10T07:14:14.191Z,20.10
2022-08-10T07:16:34.393Z,20.00
2022-08-10T07:19:03.350Z,19.63
2022-08-10T07:21:33.204Z,19.33
2022-08-10T07:24:04.599Z,17.27
2022-08-10T07:26:34.703Z,16.93
2022-08-10T07:29:05.785Z,16.27
2022-08-10T07:31:55.962Z,16.00
2022-08-10T07:34:29.120Z,17.40
2022-08-10T07:37:02.107Z,15.97
2022-08-10T07:40:03.875Z,15.37
2022-08-10T07:42:22.955Z,16.37
2022-08-10T07:44:52.820Z,15.40
2022-08-10T07:47:46.178Z,14.80
2022-08-10T07:50:15.386Z,13.97
2022-08-10T07:52:45.323Z,13.60
2022-08-10T07:55:17.914Z,12.10
2022-08-10T07:57:49.640Z,12.23
2022-08-10T08:00:20.732Z,11.90
2022-08-10T08:02:52.174Z,12.37
2022-08-10T08:05:54.915Z,13.40
2022-08-10T08:08:15.159Z,13.10
2022-08-10T08:10:43.975Z,12.20
2022-08-10T08:13:13.831Z,11.23
2022-08-10T08:16:19.789Z,12.30
2022-08-10T08:18:37.125Z,11.90
2022-08-10T08:24:01.795Z,13.50
2022-08-10T08:24:08.454Z,13.27
2022-08-10T08:26:46.234Z,13.43
2022-08-10T08:29:21.799Z,13.50
2022-08-10T08:32:01.115Z,14.50
2022-08-10T08:34:31.767Z,13.77
2022-08-10T08:37:01.279Z,13.23
2022-08-10T08:39:29.901Z,12.40
2022-08-10T08:42:11.751Z,12.27
2022-08-10T08:45:00.081Z,12.47
2022-08-10T08:48:05.441Z,12.40
2022-08-10T08:50:46.541Z,13.40
2022-08-10T08:54:01.558Z,12.50
2022-08-10T08:56:24.940Z,12.97
2022-08-10T08:59:06.867Z,15.70
2022-08-10T09:01:51.334Z,20.00
2022-08-10T09:04:47.531Z,11.80
2022-08-10T09:07:59.279Z,12.93
2022-08-10T09:10:37.730Z,11.90
2022-08-10T09:13:13.287Z,9.60
2022-08-10T09:15:49.899Z,10.07
2022-08-10T09:18:24.876Z,11.40
2022-08-10T09:21:02.120Z,11.17
2022-08-10T09:24:04.308Z,10.03
2022-08-10T09:26:43.581Z,8.70
2022-08-10T09:29:16.615Z,10.43
2022-08-10T09:35:43.303Z,9.33
2022-08-10T09:36:20.390Z,8.53
2022-08-10T09:38:01.973Z,8.10
2022-08-10T09:41:01.020Z,8.77
2022-08-10T09:43:44.758Z,8.20
2022-08-10T09:46:27.282Z,7.77
2022-08-10T09:49:06.548Z,8.93
2022-08-10T09:51:46.335Z,8.40
2022-08-10T09:54:29.764Z,9.60
2022-08-10T09:57:43.966Z,8.20
2022-08-10T10:00:08.886Z,8.47
2022-08-10T10:02:44.198Z,8.00
2022-08-10T10:05:25.901Z,7.83
2022-08-10T10:08:04.546Z,8.13
2022-08-10T10:10:46.520Z,7.60
2022-08-10T10:13:52.900Z,7.17
2022-08-10T10:16:34.645Z,7.00
2022-08-10T10:19:17.372Z,7.30
2022-08-10T10:21:54.390Z,6.63
2022-08-10T10:24:34.173Z,7.23
2022-08-10T10:27:16.377Z,7.23
2022-08-10T10:29:58.585Z,7.67
2022-08-10T10:32:40.014Z,8.37
2022-08-10T10:35:17.514Z,8.07
2022-08-10T10:38:02.824Z,8.07
2022-08-10T10:40:43.275Z,7.50
2022-08-10T10:43:27.268Z,7.80
2022-08-10T10:46:04.555Z,7.60
2022-08-10T10:48:41.475Z,8.53
2022-08-10T10:51:17.447Z,7.60
2022-08-10T10:53:53.063Z,7.40
2022-08-10T10:56:29.225Z,7.80
2022-08-10T10:59:54.278Z,8.70
2022-08-10T11:02:16.966Z,8.03
2022-08-10T11:04:55.247Z,7.57
2022-08-10T11:07:33.765Z,8.27
2022-08-10T11:10:31.784Z,8.43
2022-08-10T11:14:24.550Z,8.10
2022-08-10T11:16:06.642Z,8.47
2022-08-10T11:18:49.285Z,8.37
2022-08-10T11:21:25.547Z,8.33
2022-08-10T11:24:47.531Z,8.40
2022-08-10T11:26:55.251Z,8.40
2022-08-10T11:29:30.211Z,7.03
2022-08-10T11:32:05.692Z,8.00
2022-08-10T11:34:48.342Z,9.53
2022-08-10T11:38:31.397Z,7.47
2022-08-10T11:40:31.074Z,8.00
2022-08-10T11:43:09.453Z,8.83
2022-08-10T11:45:51.492Z,8.50
2022-08-10T11:48:53.007Z,9.40
2022-08-10T11:51:27.820Z,8.23
2022-08-10T11:54:05.184Z,8.77
2022-08-10T11:56:40.340Z,8.40
2022-08-10T11:59:27.014Z,9.27
2022-08-10T12:01:58.028Z,9.37
2022-08-10T12:04:30.138Z,9.17
2022-08-10T12:07:00.193Z,9.43
2022-08-10T12:10:07.710Z,9.80
2022-08-10T12:12:18.475Z,8.40
2022-08-10T12:14:54.841Z,9.73
2022-08-10T12:17:27.841Z,8.10
2022-08-10T12:20:04.310Z,9.20
2022-08-10T12:22:37.423Z,8.80
2022-08-10T12:25:10.693Z,9.23
2022-08-10T12:27:43.486Z,9.17
2022-08-10T12:30:16.139Z,9.80
2022-08-10T12:32:52.330Z,14.20
2022-08-10T12:35:28.841Z,13.97
2022-08-10T12:38:08.589Z,12.30
2022-08-10T12:40:43.256Z,12.00
2022-08-10T12:44:07.287Z,11.83
2022-08-10T12:46:13.410Z,10.33
2022-08-10T12:48:49.727Z,9.90
2022-08-10T12:51:23.296Z,9.70
2022-08-10T12:53:58.250Z,10.70
2022-08-10T12:56:30.232Z,9.90
2022-08-10T12:59:01.623Z,9.80
2022-08-10T13:02:07.041Z,10.53
2022-08-10T13:04:29.463Z,9.07
2022-08-10T13:07:02.173Z,8.90
2022-08-10T13:09:31.160Z,8.90
2022-08-10T13:12:44.501Z,9.23
2022-08-10T13:14:55.892Z,10.30
2022-08-10T13:17:32.491Z,10.50
2022-08-10T13:20:19.381Z,11.10
2022-08-10T13:22:50.890Z,10.93
2022-08-10T13:25:27.156Z,10.43
2022-08-10T13:28:00.594Z,9.87
2022-08-10T13:30:50.597Z,9.10
2022-08-10T13:34:41.246Z,12.30
2022-08-10T13:36:17.239Z,9.43
2022-08-10T13:38:48.877Z,8.40
2022-08-10T13:41:18.221Z,9.10
2022-08-10T13:43:53.725Z,9.07
2022-08-10T13:46:23.827Z,8.53
2022-08-10T13:48:53.437Z,9.53
2022-08-10T13:51:54.551Z,8.47
2022-08-10T13:54:15.839Z,9.30
2022-08-10T13:56:47.652Z,9.10
2022-08-10T13:59:17.267Z,9.03
2022-08-10T14:01:49.992Z,9.50
2022-08-10T14:04:20.169Z,9.10
2022-08-10T14:06:54.112Z,9.50
2022-08-10T14:09:31.113Z,10.00
2022-08-10T14:12:00.845Z,11.50
2022-08-10T14:14:31.859Z,9.27
2022-08-10T14:17:01.860Z,8.67
2022-08-10T14:19:33.104Z,9.00
2022-08-10T14:22:05.387Z,9.03
2022-08-10T14:24:35.688Z,9.57
2022-08-10T14:27:07.958Z,9.30
2022-08-10T14:29:43.680Z,11.00
2022-08-10T14:32:14.994Z,8.47
2022-08-10T14:36:16.051Z,8.63
2022-08-10T14:37:37.836Z,9.00
2022-08-10T14:40:14.406Z,10.30
2022-08-10T14:42:46.974Z,10.60
2022-08-10T14:45:21.782Z,9.60
2022-08-10T14:47:59.670Z,9.40
2022-08-10T14:50:33.434Z,10.43
2022-08-10T14:53:09.568Z,12.50
2022-08-10T14:55:58.595Z,11.23
2022-08-10T14:58:32.935Z,11.53
2022-08-10T15:01:02.323Z,13.20
2022-08-10T15:04:02.147Z,12.63
2022-08-10T15:06:30.585Z,12.53
2022-08-10T15:09:12.422Z,11.93
2022-08-10T15:12:13.124Z,12.60
2022-08-10T15:14:46.063Z,11.80
2022-08-10T15:17:17.239Z,11.87
2022-08-10T15:20:02.124Z,12.50
2022-08-10T15:22:37.999Z,12.93
2022-08-10T15:25:17.780Z,13.43
2022-08-10T15:27:54.623Z,12.80
2022-08-10T15:30:31.092Z,13.70
2022-08-10T15:33:21.005Z,12.10
2022-08-10T15:36:08.070Z,12.00
2022-08-10T15:38:40.320Z,12.23
2022-08-10T15:41:16.483Z,14.03
2022-08-10T15:43:48.387Z,13.07
2022-08-10T15:46:29.909Z,13.10
2022-08-10T15:49:02.304Z,13.23
2022-08-10T15:51:53.612Z,12.27
2022-08-10T15:54:33.588Z,11.90
2022-08-10T15:57:07.815Z,12.23
2022-08-10T15:59:44.420Z,12.03
2022-08-10T16:02:17.554Z,11.60
2022-08-10T16:04:53.290Z,11.43
2022-08-10T16:07:46.271Z,10.77
2022-08-10T16:10:25.430Z,11.43
2022-08-10T16:13:01.067Z,10.23
2022-08-10T16:15:32.742Z,11.70
2022-08-10T16:18:05.722Z,11.43
2022-08-10T16:20:53.189Z,11.30
2022-08-10T16:23:26.526Z,12.37
2022-08-10T16:25:58.297Z,12.50
2022-08-10T16:28:32.994Z,12.97
2022-08-10T16:31:06.607Z,12.20
2022-08-10T16:33:54.195Z,11.00
2022-08-10T16:36:32.458Z,10.93
2022-08-10T16:39:01.830Z,10.90
2022-08-10T16:42:00.526Z,11.50
2022-08-10T16:44:24.010Z,11.53
2022-08-10T16:46:54.283Z,11.40
2022-08-10T16:49:26.200Z,11.13
2022-08-10T16:51:56.539Z,10.43
2022-08-10T16:54:27.765Z,9.87
2022-08-10T16:57:01.850Z,10.27
2022-08-10T16:59:33.314Z,10.13
2022-08-10T17:02:04.082Z,8.50
2022-08-10T17:04:34.062Z,9.07
2022-08-10T17:07:07.325Z,9.33
2022-08-10T17:09:38.628Z,8.70
2022-08-10T17:12:10.777Z,8.03
2022-08-10T17:14:40.627Z,8.00
2022-08-10T17:17:18.595Z,7.77
2022-08-10T17:19:47.048Z,7.60
2022-08-10T17:22:18.631Z,7.60
2022-08-10T17:24:51.159Z,7.97
2022-08-10T17:28:04.089Z,6.70
2022-08-10T17:30:15.835Z,7.47
2022-08-10T17:32:57.930Z,7.23
2022-08-10T17:35:29.797Z,7.10
2022-08-10T17:38:02.264Z,6.43
2022-08-10T17:40:33.482Z,7.40
2022-08-10T17:43:02.946Z,7.13
2022-08-10T17:45:47.702Z,7.70
2022-08-10T17:48:22.047Z,7.20
2022-08-10T17:50:52.459Z,6.70
2022-08-10T17:53:25.599Z,6.20
2022-08-10T17:55:56.848Z,5.40
2022-08-10T17:58:27.160Z,6.40
2022-08-10T18:01:38.433Z,6.57
2022-08-10T18:03:53.222Z,7.67
2022-08-10T18:06:22.977Z,6.57
2022-08-10T18:08:57.770Z,6.57
2022-08-10T18:11:30.506Z,9.03
2022-08-10T18:14:03.748Z,7.77
2022-08-10T18:16:34.338Z,7.40
2022-08-10T18:19:08.614Z,6.50
2022-08-10T18:21:41.406Z,6.90
2022-08-10T18:24:16.478Z,6.73
2022-08-10T18:26:48.911Z,6.67
2022-08-10T18:29:19.943Z,6.30
2022-08-10T18:31:50.102Z,6.37
2022-08-10T18:34:21.740Z,6.63
2022-08-10T18:36:51.881Z,7.10
2022-08-10T18:39:23.403Z,6.20
2022-08-10T18:42:00.147Z,6.50
2022-08-10T18:44:37.399Z,6.53
2022-08-10T18:47:12.375Z,5.40
2022-08-10T18:49:59.305Z,6.13
2022-08-10T18:52:31.540Z,6.83
2022-08-10T18:55:23.160Z,6.20
2022-08-10T18:58:34.359Z,8.07
2022-08-10T19:01:17.175Z,5.67
2022-08-10T19:04:18.930Z,6.23
2022-08-10T19:07:18.421Z,5.60
2022-08-10T19:09:58.653Z,6.43
2022-08-10T19:12:43.156Z,5.20
2022-08-10T19:15:24.336Z,6.70
2022-08-10T19:18:06.132Z,6.10
2022-08-10T19:20:40.555Z,6.60
2022-08-10T19:23:24.675Z,6.20
2022-08-10T19:26:41.623Z,5.97
2022-08-10T19:28:59.274Z,6.17
2022-08-10T19:31:45.064Z,5.90
2022-08-10T19:34:36.115Z,6.37
2022-08-10T19:37:11.061Z,6.87
2022-08-10T19:40:09.853Z,6.50
2022-08-10T19:42:43.309Z,5.70
2022-08-10T19:45:56.153Z,6.03
2022-08-10T19:48:15.134Z,6.27
2022-08-10T19:50:48.387Z,6.50
2022-08-10T19:53:26.206Z,6.03
2022-08-10T19:56:24.250Z,5.83
2022-08-10T19:59:04.091Z,6.97
2022-08-10T20:01:55.754Z,7.17
2022-08-10T20:04:29.860Z,6.50
2022-08-10T20:07:14.810Z,7.00
2022-08-10T20:09:50.009Z,6.67
2022-08-10T20:12:34.059Z,5.70
2022-08-10T20:15:07.003Z,7.30
2022-08-10T20:17:51.542Z,5.60
2022-08-10T20:20:31.229Z,7.10
2022-08-10T20:23:06.553Z,6.93
2022-08-10T20:25:35.320Z,6.30
2022-08-10T20:28:14.547Z,7.00
2022-08-10T20:30:48.027Z,8.30
2022-08-10T20:33:22.075Z,7.50
2022-08-10T20:35:53.391Z,6.60
2022-08-10T20:38:28.832Z,6.40
2022-08-10T20:41:09.537Z,6.20
2022-08-10T20:43:47.445Z,7.27
2022-08-10T20:46:23.912Z,6.20
2022-08-10T20:49:01.140Z,6.20
2022-08-10T20:51:57.395Z,5.93
2022-08-10T20:54:32.577Z,6.67
2022-08-10T20:57:54.051Z,6.63
2022-08-10T21:00:19.215Z,7.50
2022-08-10T21:03:25.068Z,6.93
2022-08-10T21:06:09.890Z,6.47
2022-08-10T21:08:52.074Z,8.50
2022-08-10T21:11:36.054Z,7.80
2022-08-10T21:14:21.183Z,8.60
2022-08-10T21:17:10.782Z,7.50
2022-08-10T21:20:01.587Z,6.27
2022-08-10T21:22:35.814Z,9.07
2022-08-10T21:25:07.688Z,6.90
2022-08-10T21:27:55.307Z,7.90
2022-08-10T21:30:40.487Z,7.70
2022-08-10T21:33:16.186Z,7.00
2022-08-10T21:35:47.365Z,7.27
2022-08-10T21:38:24.300Z,7.07
2022-08-10T21:41:57.815Z,8.20
2022-08-10T21:44:39.902Z,7.27
2022-08-10T21:47:43.548Z,7.80
2022-08-10T21:50:46.324Z,8.17
2022-08-10T21:53:44.075Z,7.57
2022-08-10T21:56:40.434Z,7.80
2022-08-10T21:59:34.941Z,7.53
2022-08-10T22:02:28.163Z,8.10
2022-08-10T22:05:18.663Z,7.80
2022-08-10T22:08:12.682Z,8.70
2022-08-10T22:11:06.357Z,9.13
2022-08-10T22:13:56.243Z,8.07
2022-08-10T22:17:00.967Z,8.33
2022-08-10T22:19:51.223Z,7.63
2022-08-10T22:22:45.187Z,7.73
2022-08-10T22:25:56.782Z,8.87
2022-08-10T22:28:48.689Z,8.27
2022-08-10T22:31:50.331Z,9.70
2022-08-10T22:34:59.603Z,7.47
2022-08-10T22:37:57.540Z,8.20
2022-08-10T22:40:44.084Z,8.17
2022-08-10T22:43:38.608Z,8.77
2022-08-10T22:46:31.583Z,8.17
2022-08-10T22:49:01.949Z,9.37
2022-08-10T22:51:37.465Z,8.33
2022-08-10T22:54:32.006Z,7.33
2022-08-10T22:57:20.069Z,8.60
2022-08-10T22:59:50.982Z,8.20
2022-08-10T23:02:32.935Z,8.37
2022-08-10T23:05:07.880Z,8.70
2022-08-10T23:07:42.630Z,8.60
2022-08-10T23:10:14.286Z,8.70
2022-08-10T23:12:47.423Z,9.17
2022-08-10T23:15:39.576Z,8.73
2022-08-10T23:18:28.970Z,9.17
2022-08-10T23:20:59.676Z,8.97
2022-08-10T23:23:30.240Z,8.77
2022-08-10T23:26:02.138Z,9.30
2022-08-10T23:28:38.885Z,9.53
2022-08-10T23:32:01.466Z,8.83
2022-08-10T23:34:21.794Z,8.67
2022-08-10T23:36:51.419Z,9.40
2022-08-10T23:39:26.770Z,10.10
2022-08-10T23:42:03.256Z,10.07
2022-08-10T23:44:38.285Z,8.47
2022-08-10T23:47:09.485Z,9.57
2022-08-10T23:49:39.250Z,8.80
2022-08-10T23:52:16.887Z,9.97
2022-08-10T23:54:48.983Z,9.40
2022-08-10T23:57:21.313Z,9.70
2022-08-10T23:59:55.718Z,10.63
